Time;durP1;ratioP1;P1;durP2;ratioP2;P2;SDS_P1;SDS_P2;PMS_P1;PMS_P2;Temp;Humidity;BMP_temperature;BMP_pressure;BME280_temperature;BME280_humidity;BME280_pressure;Samples;Min_cycle;Max_cycle;Signal;HPM_P1;HPM_P2
2021/10/22 00:01:31;;;;;;;13.23;2.30;;;;;;;;;;5001722;28;20053;-68
2021/10/22 00:03:57;;;;;;;25.73;2.63;;;;;;;;;;4998865;28;20415;-68
2021/10/22 00:06:23;;;;;;;21.08;2.72;;;;;;;;;;4992159;28;20057;-68
2021/10/22 00:08:50;;;;;;;22.70;4.45;;;;;;;;;;4996891;28;20042;-68
2021/10/22 00:11:16;;;;;;;12.85;2.35;;;;;;;;;;4974825;28;20076;-68
2021/10/22 00:13:42;;;;;;;20.48;3.13;;;;;;;;;;4995138;28;20116;-68
2021/10/22 00:16:08;;;;;;;14.13;2.22;;;;;;;;;;4989966;28;20057;-68
2021/10/22 00:18:35;;;;;;;15.00;1.90;;;;;;;;;;4994856;28;20033;-68
2021/10/22 00:21:02;;;;;;;15.73;2.20;;;;;;;;;;4992128;28;20050;-68
2021/10/22 00:23:28;;;;;;;18.85;2.20;;;;;;;;;;5004971;28;20309;-68
2021/10/22 00:25:54;;;;;;;22.30;2.45;;;;;;;;;;4999204;28;20054;-68
2021/10/22 00:28:20;;;;;;;15.68;2.55;;;;;;;;;;4997114;28;20121;-68
2021/10/22 00:30:46;;;;;;;17.25;2.67;;;;;;;;;;4998172;28;20121;-68
2021/10/22 00:33:12;;;;;;;20.60;3.20;;;;;;;;;;4997836;28;20093;-68
2021/10/22 00:35:39;;;;;;;14.98;2.22;;;;;;;;;;5005392;28;20573;-68
2021/10/22 00:38:05;;;;;;;20.60;3.80;;;;;;;;;;4991645;28;20371;-68
2021/10/22 00:40:31;;;;;;;21.95;2.95;;;;;;;;;;5002442;28;20042;-68
2021/10/22 00:42:57;;;;;;;18.20;2.88;;;;;;;;;;4992849;28;20041;-68
2021/10/22 00:45:23;;;;;;;16.10;3.05;;;;;;;;;;4985068;28;20111;-68
2021/10/22 00:47:50;;;;;;;17.83;2.78;;;;;;;;;;4988899;28;20057;-68
2021/10/22 00:50:16;;;;;;;15.70;2.70;;;;;;;;;;4996550;28;20038;-68
2021/10/22 00:52:42;;;;;;;14.85;2.55;;;;;;;;;;4996383;28;20490;-68
2021/10/22 00:55:16;;;;;;;16.25;2.85;;;;;;;;;;5002828;28;20053;-69
2021/10/22 00:57:42;;;;;;;26.15;4.63;;;;;;;;;;4999732;28;20380;-68
2021/10/22 01:00:09;;;;;;;15.02;2.38;;;;;;;;;;4975224;28;20482;-68
2021/10/22 01:02:36;;;;;;;19.52;2.58;;;;;;;;;;4971130;28;20144;-68
2021/10/22 01:05:08;;;;;;;18.65;3.50;;;;;;;;;;4973904;28;20046;-68
2021/10/22 01:07:34;;;;;;;13.55;2.92;;;;;;;;;;4977255;28;20066;-68
2021/10/22 01:10:00;;;;;;;16.98;2.88;;;;;;;;;;4973172;28;20121;-68
2021/10/22 01:12:26;;;;;;;19.48;3.03;;;;;;;;;;4977372;28;20051;-68
2021/10/22 01:14:52;;;;;;;15.75;2.45;;;;;;;;;;4972314;28;20054;-68
2021/10/22 01:17:37;;;;;;;16.45;3.35;;;;;;;;;;4973605;28;20645;-68
2021/10/22 01:20:05;;;;;;;14.57;2.22;;;;;;;;;;4996610;28;20122;-68
2021/10/22 01:22:31;;;;;;;20.63;3.05;;;;;;;;;;4960459;28;20557;-68
2021/10/22 01:24:57;;;;;;;12.63;2.30;;;;;;;;;;4970595;28;20602;-68
2021/10/22 01:27:24;;;;;;;15.63;2.20;;;;;;;;;;4988617;28;20049;-68
2021/10/22 01:29:50;;;;;;;16.55;3.20;;;;;;;;;;4979512;28;20449;-68
2021/10/22 01:32:17;;;;;;;15.25;2.47;;;;;;;;;;4973729;28;20092;-68
2021/10/22 01:34:44;;;;;;;18.60;2.90;;;;;;;;;;4958491;28;20386;-68
2021/10/22 01:37:10;;;;;;;18.83;2.60;;;;;;;;;;4984429;28;20351;-68
2021/10/22 01:39:36;;;;;;;16.58;2.97;;;;;;;;;;4974038;28;20045;-68
2021/10/22 01:42:03;;;;;;;18.02;2.40;;;;;;;;;;4971067;28;20046;-68
2021/10/22 01:44:29;;;;;;;12.98;2.53;;;;;;;;;;4970558;28;20042;-68
2021/10/22 01:46:55;;;;;;;16.42;2.35;;;;;;;;;;4970001;28;20106;-68
2021/10/22 01:49:22;;;;;;;15.13;2.22;;;;;;;;;;4975982;28;20049;-68
2021/10/22 01:51:48;;;;;;;13.73;2.30;;;;;;;;;;4974461;28;20089;-68
2021/10/22 01:54:14;;;;;;;19.80;3.05;;;;;;;;;;4959767;28;20097;-68
2021/10/22 01:56:40;;;;;;;15.68;2.85;;;;;;;;;;4964000;28;20050;-68
2021/10/22 01:59:06;;;;;;;22.70;2.80;;;;;;;;;;4982311;28;20069;-68
2021/10/22 02:01:32;;;;;;;17.95;2.78;;;;;;;;;;4991314;28;20049;-68
2021/10/22 02:04:00;;;;;;;16.17;2.72;;;;;;;;;;4991889;28;20050;-68
2021/10/22 02:06:26;;;;;;;16.95;2.25;;;;;;;;;;4999063;28;20062;-68
2021/10/22 02:08:52;;;;;;;11.63;2.08;;;;;;;;;;4989995;28;20046;-68
2021/10/22 02:11:18;;;;;;;16.98;2.85;;;;;;;;;;5005164;28;20125;-68
2021/10/22 02:13:45;;;;;;;10.55;2.83;;;;;;;;;;4995109;28;20054;-68
2021/10/22 02:16:11;;;;;;;20.73;2.80;;;;;;;;;;4994924;28;20052;-68
2021/10/22 02:18:37;;;;;;;17.17;2.78;;;;;;;;;;4991001;28;20050;-68
2021/10/22 02:21:03;;;;;;;12.88;3.10;;;;;;;;;;4994560;28;20072;-68
2021/10/22 02:23:29;;;;;;;16.98;2.70;;;;;;;;;;5004664;28;20192;-68
2021/10/22 02:25:55;;;;;;;14.23;2.40;;;;;;;;;;4999479;28;20086;-68
2021/10/22 02:28:21;;;;;;;17.42;2.85;;;;;;;;;;5000353;28;20080;-68
2021/10/22 02:30:47;;;;;;;17.65;3.33;;;;;;;;;;4990114;28;20078;-68
2021/10/22 02:33:14;;;;;;;12.38;2.30;;;;;;;;;;4993263;28;20056;-68
2021/10/22 02:35:40;;;;;;;14.50;3.05;;;;;;;;;;4993564;28;20458;-68
2021/10/22 02:38:07;;;;;;;14.50;2.83;;;;;;;;;;4991832;28;20073;-68
2021/10/22 02:40:33;;;;;;;14.15;2.63;;;;;;;;;;4993552;28;20038;-68
2021/10/22 02:42:59;;;;;;;19.23;3.13;;;;;;;;;;4994262;28;20123;-68
2021/10/22 02:45:25;;;;;;;20.70;3.30;;;;;;;;;;5005804;28;20461;-68
2021/10/22 02:47:51;;;;;;;13.02;2.80;;;;;;;;;;4992508;28;20088;-68
2021/10/22 02:50:18;;;;;;;21.55;3.13;;;;;;;;;;4991879;28;20053;-68
2021/10/22 02:52:44;;;;;;;20.35;3.08;;;;;;;;;;5003003;28;20510;-68
2021/10/22 02:55:10;;;;;;;18.30;3.22;;;;;;;;;;5001107;28;20034;-68
2021/10/22 02:57:37;;;;;;;14.18;2.38;;;;;;;;;;4997202;28;20042;-68
2021/10/22 03:00:04;;;;;;;18.02;3.00;;;;;;;;;;5004272;28;20062;-68
2021/10/22 03:02:30;;;;;;;21.55;2.97;;;;;;;;;;5008223;28;20053;-68
2021/10/22 03:04:56;;;;;;;16.55;3.03;;;;;;;;;;5005331;28;20093;-68
2021/10/22 03:07:22;;;;;;;14.38;2.25;;;;;;;;;;4985805;28;20038;-68
2021/10/22 03:09:48;;;;;;;11.20;2.75;;;;;;;;;;4985845;28;20070;-68
2021/10/22 03:12:15;;;;;;;19.75;2.50;;;;;;;;;;4998536;28;20116;-68
2021/10/22 03:14:41;;;;;;;24.77;4.18;;;;;;;;;;4991170;28;20119;-68
2021/10/22 03:17:07;;;;;;;10.15;2.95;;;;;;;;;;4996647;28;20417;-68
2021/10/22 03:19:33;;;;;;;13.95;3.33;;;;;;;;;;5002259;28;20561;-68
2021/10/22 03:21:59;;;;;;;15.82;3.35;;;;;;;;;;5003616;28;20486;-68
2021/10/22 03:24:25;;;;;;;17.90;2.58;;;;;;;;;;4993275;28;20092;-68
2021/10/22 03:26:52;;;;;;;15.32;3.10;;;;;;;;;;4992368;28;20048;-68
2021/10/22 03:29:19;;;;;;;16.92;2.95;;;;;;;;;;4990453;28;20061;-68
2021/10/22 03:31:47;;;;;;;20.70;4.10;;;;;;;;;;4991858;28;20057;-68
2021/10/22 03:34:13;;;;;;;17.30;2.80;;;;;;;;;;4996756;28;21839;-68
2021/10/22 03:36:41;;;;;;;20.75;3.60;;;;;;;;;;4993389;28;20046;-68
2021/10/22 03:39:08;;;;;;;13.27;2.38;;;;;;;;;;5008432;28;20140;-68
2021/10/22 03:41:34;;;;;;;13.27;1.35;;;;;;;;;;4994887;28;20060;-68
2021/10/22 03:44:00;;;;;;;16.27;2.58;;;;;;;;;;4991589;28;20144;-68
2021/10/22 03:46:26;;;;;;;11.25;1.95;;;;;;;;;;4992504;28;20085;-68
2021/10/22 03:48:53;;;;;;;14.90;2.35;;;;;;;;;;5004059;28;20501;-68
2021/10/22 03:51:19;;;;;;;13.80;2.45;;;;;;;;;;4999005;28;20050;-68
2021/10/22 03:53:46;;;;;;;15.88;2.83;;;;;;;;;;4993561;28;20054;-68
2021/10/22 03:56:12;;;;;;;14.25;2.80;;;;;;;;;;4991428;28;20053;-68
2021/10/22 03:58:38;;;;;;;19.08;3.63;;;;;;;;;;5007698;28;20045;-68
2021/10/22 04:01:04;;;;;;;16.80;2.67;;;;;;;;;;5002478;28;20119;-68
2021/10/22 04:03:30;;;;;;;18.40;2.72;;;;;;;;;;4993061;28;20041;-68
2021/10/22 04:05:56;;;;;;;15.70;2.72;;;;;;;;;;4996655;28;20141;-68
2021/10/22 04:08:23;;;;;;;20.60;2.75;;;;;;;;;;4997198;28;20038;-68
2021/10/22 04:10:49;;;;;;;16.08;3.03;;;;;;;;;;4989652;28;20047;-68
2021/10/22 04:13:15;;;;;;;12.77;1.85;;;;;;;;;;4987722;28;20111;-68
2021/10/22 04:15:43;;;;;;;10.95;1.92;;;;;;;;;;4985450;28;20490;-68
2021/10/22 04:18:09;;;;;;;9.40;1.77;;;;;;;;;;4984667;28;20051;-68
2021/10/22 04:20:36;;;;;;;11.73;1.63;;;;;;;;;;4998493;28;20042;-68
2021/10/22 04:23:02;;;;;;;9.48;1.83;;;;;;;;;;5002338;28;20050;-68
2021/10/22 04:25:29;;;;;;;7.95;1.45;;;;;;;;;;5001571;28;20446;-68
2021/10/22 04:27:55;;;;;;;9.43;1.30;;;;;;;;;;4998342;28;20078;-69
2021/10/22 04:30:23;;;;;;;7.15;1.40;;;;;;;;;;5005581;28;20482;-67
2021/10/22 04:32:49;;;;;;;10.38;1.55;;;;;;;;;;4991365;28;20099;-68
2021/10/22 04:35:18;;;;;;;17.75;3.17;;;;;;;;;;4990419;28;20037;-68
2021/10/22 04:37:48;;;;;;;14.90;1.80;;;;;;;;;;4985755;28;20445;-68
2021/10/22 04:40:33;;;;;;;12.63;1.60;;;;;;;;;;5000020;28;20501;-68
2021/10/22 04:43:10;;;;;;;16.17;2.53;;;;;;;;;;4989639;28;20474;-68
2021/10/22 04:45:37;;;;;;;21.38;3.17;;;;;;;;;;5002129;28;20407;-68
2021/10/22 04:48:05;;;;;;;15.48;2.42;;;;;;;;;;5003229;28;20125;-68
2021/10/22 04:50:32;;;;;;;9.93;2.17;;;;;;;;;;4991367;28;20041;-68
2021/10/22 04:52:58;;;;;;;12.75;2.20;;;;;;;;;;4993781;28;20050;-68
2021/10/22 04:55:27;;;;;;;13.68;1.38;;;;;;;;;;5002328;28;20692;-68
2021/10/22 04:57:54;;;;;;;11.82;1.58;;;;;;;;;;4991178;28;20405;-68
2021/10/22 05:00:21;;;;;;;9.82;1.60;;;;;;;;;;4981484;28;20563;-68
2021/10/22 05:02:48;;;;;;;9.48;2.15;;;;;;;;;;4983663;28;20394;-68
2021/10/22 05:05:15;;;;;;;10.77;1.63;;;;;;;;;;4988580;28;20053;-68
2021/10/22 05:07:42;;;;;;;8.75;2.50;;;;;;;;;;4986930;28;20055;-68
2021/10/22 05:10:09;;;;;;;12.70;1.70;;;;;;;;;;4986798;28;20074;-68
2021/10/22 05:12:35;;;;;;;7.28;1.77;;;;;;;;;;4986906;28;20125;-68
2021/10/22 05:15:02;;;;;;;9.98;1.90;;;;;;;;;;4978148;28;20054;-68
2021/10/22 05:17:29;;;;;;;15.90;3.00;;;;;;;;;;4979490;28;20085;-68
2021/10/22 05:19:56;;;;;;;14.35;1.95;;;;;;;;;;4975276;28;20059;-68
2021/10/22 05:22:23;;;;;;;19.85;2.30;;;;;;;;;;4988265;28;20073;-68
2021/10/22 05:24:49;;;;;;;16.77;2.60;;;;;;;;;;4987736;28;20053;-67
2021/10/22 05:27:15;;;;;;;16.75;2.83;;;;;;;;;;4988232;28;20166;-68
2021/10/22 05:29:41;;;;;;;27.35;4.55;;;;;;;;;;4985474;28;20053;-68
2021/10/22 05:32:07;;;;;;;21.50;3.45;;;;;;;;;;4980333;28;20050;-67
2021/10/22 05:34:33;;;;;;;21.60;3.33;;;;;;;;;;4987671;28;20076;-68
2021/10/22 05:36:59;;;;;;;23.38;4.28;;;;;;;;;;4976720;28;20452;-68
2021/10/22 05:39:26;;;;;;;19.58;2.72;;;;;;;;;;4969214;28;20054;-68
2021/10/22 05:41:53;;;;;;;22.08;3.20;;;;;;;;;;4984539;28;20057;-68
2021/10/22 05:44:20;;;;;;;16.45;2.88;;;;;;;;;;4987010;28;20100;-68
2021/10/22 05:46:47;;;;;;;26.50;3.20;;;;;;;;;;4986239;28;20117;-68
2021/10/22 05:49:13;;;;;;;19.75;3.10;;;;;;;;;;4986328;28;20488;-68
2021/10/22 05:51:41;;;;;;;15.77;2.78;;;;;;;;;;4987432;28;20139;-68
2021/10/22 05:54:07;;;;;;;12.52;1.88;;;;;;;;;;4981435;28;20035;-68
2021/10/22 05:56:34;;;;;;;23.17;3.13;;;;;;;;;;4991735;28;20042;-68
2021/10/22 05:59:00;;;;;;;18.52;2.50;;;;;;;;;;4989141;28;20196;-67
2021/10/22 06:01:26;;;;;;;16.42;3.42;;;;;;;;;;4984184;28;20054;-68
2021/10/22 06:03:52;;;;;;;16.45;2.33;;;;;;;;;;4986610;28;20495;-68
2021/10/22 06:06:19;;;;;;;21.35;3.78;;;;;;;;;;4983276;28;20150;-68
2021/10/22 06:08:45;;;;;;;18.42;3.85;;;;;;;;;;4990272;28;20125;-68
2021/10/22 06:11:11;;;;;;;24.88;3.60;;;;;;;;;;4988058;28;20054;-67
2021/10/22 06:13:38;;;;;;;18.65;3.00;;;;;;;;;;4981986;28;20061;-67
2021/10/22 06:16:05;;;;;;;20.08;2.90;;;;;;;;;;4986425;28;20129;-67
2021/10/22 06:18:31;;;;;;;17.55;3.38;;;;;;;;;;4982228;28;20042;-67
2021/10/22 06:21:07;;;;;;;22.95;3.47;;;;;;;;;;4988415;28;20085;-67
2021/10/22 06:26:18;;;;;;;18.52;2.97;;;;;;;;;;4988716;28;20046;-67
2021/10/22 06:28:44;;;;;;;17.40;2.25;;;;;;;;;;4991237;28;20038;-67
2021/10/22 06:31:12;;;;;;;13.85;2.00;;;;;;;;;;4993099;28;20042;-67
2021/10/22 06:33:39;;;;;;;10.35;1.73;;;;;;;;;;4990118;28;20128;-67
2021/10/22 06:36:06;;;;;;;16.90;2.10;;;;;;;;;;4973327;28;20043;-67
2021/10/22 06:38:32;;;;;;;12.70;2.03;;;;;;;;;;4982181;28;20062;-67
2021/10/22 06:40:58;;;;;;;11.27;1.88;;;;;;;;;;4985429;28;20058;-67
2021/10/22 06:43:25;;;;;;;8.25;2.13;;;;;;;;;;4988530;28;20490;-67
2021/10/22 06:45:51;;;;;;;10.55;2.55;;;;;;;;;;4988587;28;20038;-66
2021/10/22 06:48:18;;;;;;;11.45;2.40;;;;;;;;;;4988370;28;20053;-67
2021/10/22 06:50:44;;;;;;;11.15;2.65;;;;;;;;;;5004962;28;20049;-67
2021/10/22 06:53:11;;;;;;;14.80;2.10;;;;;;;;;;4991756;28;20398;-67
2021/10/22 06:55:37;;;;;;;16.08;2.28;;;;;;;;;;4991147;28;20049;-67
2021/10/22 06:58:04;;;;;;;15.77;3.08;;;;;;;;;;4990712;28;20136;-67
2021/10/22 07:00:32;;;;;;;13.88;2.22;;;;;;;;;;4988792;28;20118;-68
2021/10/22 07:02:58;;;;;;;17.30;2.53;;;;;;;;;;5003546;28;20115;-68
2021/10/22 07:07:55;;;;;;;10.63;2.08;;;;;;;;;;4991394;28;20046;-67
2021/10/22 07:10:22;;;;;;;14.05;2.92;;;;;;;;;;4982072;28;20061;-67
2021/10/22 07:12:48;;;;;;;13.10;2.40;;;;;;;;;;5002510;28;20042;-68
2021/10/22 07:15:15;;;;;;;13.30;2.40;;;;;;;;;;4994847;28;20133;-67
2021/10/22 07:17:42;;;;;;;14.45;2.30;;;;;;;;;;4993430;28;20136;-68
2021/10/22 07:20:11;;;;;;;17.83;2.78;;;;;;;;;;5004318;28;20053;-68
2021/10/22 07:22:45;;;;;;;19.52;3.33;;;;;;;;;;4988418;28;20429;-68
2021/10/22 07:25:12;;;;;;;16.38;2.33;;;;;;;;;;5010195;28;20042;-69
2021/10/22 07:27:38;;;;;;;13.05;2.05;;;;;;;;;;4992764;28;20050;-68
2021/10/22 07:30:05;;;;;;;15.35;2.45;;;;;;;;;;4994440;28;20046;-68
2021/10/22 07:32:31;;;;;;;14.35;2.40;;;;;;;;;;4988283;28;20443;-67
2021/10/22 07:34:58;;;;;;;18.50;2.67;;;;;;;;;;5004194;28;20393;-67
2021/10/22 07:37:26;;;;;;;26.40;2.97;;;;;;;;;;4990844;28;20080;-67
2021/10/22 07:39:52;;;;;;;18.20;3.22;;;;;;;;;;4985830;28;20043;-67
2021/10/22 07:42:19;;;;;;;19.60;3.20;;;;;;;;;;4992446;28;20050;-68
2021/10/22 07:44:46;;;;;;;25.48;2.88;;;;;;;;;;4982632;28;20042;-68
2021/10/22 07:47:13;;;;;;;17.23;3.22;;;;;;;;;;5006210;28;20492;-67
2021/10/22 07:49:41;;;;;;;21.08;3.83;;;;;;;;;;4997178;28;20675;-67
2021/10/22 07:52:08;;;;;;;20.08;3.53;;;;;;;;;;4989397;28;20046;-68
2021/10/22 07:54:34;;;;;;;21.58;3.83;;;;;;;;;;5005127;28;20053;-67
2021/10/22 07:57:00;;;;;;;35.70;5.55;;;;;;;;;;5008702;28;20046;-67
2021/10/22 07:59:26;;;;;;;24.38;3.88;;;;;;;;;;4979500;28;20134;-67
2021/10/22 08:01:53;;;;;;;23.52;3.83;;;;;;;;;;4983980;28;20530;-67
2021/10/22 08:04:19;;;;;;;24.77;4.45;;;;;;;;;;4982347;28;20466;-67
2021/10/22 08:06:45;;;;;;;31.27;4.55;;;;;;;;;;4988541;28;20052;-67
2021/10/22 08:09:11;;;;;;;28.67;4.65;;;;;;;;;;4982088;28;20047;-67
2021/10/22 08:11:37;;;;;;;19.00;3.25;;;;;;;;;;4994773;28;20424;-68
2021/10/22 08:14:03;;;;;;;24.23;3.50;;;;;;;;;;4980205;28;20057;-67
2021/10/22 08:16:30;;;;;;;16.95;2.85;;;;;;;;;;4980171;28;20474;-67
2021/10/22 08:18:56;;;;;;;21.30;3.22;;;;;;;;;;4987781;28;20041;-67
2021/10/22 08:21:34;;;;;;;26.17;3.90;;;;;;;;;;4986734;28;20072;-67
2021/10/22 08:24:01;;;;;;;19.67;3.55;;;;;;;;;;4983682;28;20137;-67
2021/10/22 08:26:27;;;;;;;18.48;2.97;;;;;;;;;;4983402;28;20098;-67
2021/10/22 08:28:53;;;;;;;18.55;3.00;;;;;;;;;;4986496;28;20748;-67
2021/10/22 08:31:19;;;;;;;25.08;2.75;;;;;;;;;;4985509;28;20057;-67
2021/10/22 08:33:46;;;;;;;24.10;4.20;;;;;;;;;;4975484;28;21785;-67
2021/10/22 08:36:13;;;;;;;26.83;4.28;;;;;;;;;;4979605;28;20407;-67
2021/10/22 08:38:40;;;;;;;28.30;4.80;;;;;;;;;;4994786;28;20054;-67
2021/10/22 08:41:09;;;;;;;23.80;3.38;;;;;;;;;;4978352;28;20054;-67
2021/10/22 08:43:35;;;;;;;29.67;3.67;;;;;;;;;;4987572;28;20057;-67
2021/10/22 08:46:03;;;;;;;30.20;4.22;;;;;;;;;;4982906;28;20102;-66
2021/10/22 08:48:30;;;;;;;19.52;3.47;;;;;;;;;;4985629;28;20155;-67
2021/10/22 08:50:57;;;;;;;22.27;3.60;;;;;;;;;;4985189;28;20396;-67
2021/10/22 08:53:23;;;;;;;21.90;3.65;;;;;;;;;;4983535;28;20038;-67
2021/10/22 08:55:50;;;;;;;27.83;3.90;;;;;;;;;;4984417;28;20074;-67
2021/10/22 08:58:19;;;;;;;24.23;4.07;;;;;;;;;;4980092;28;20164;-67
2021/10/22 09:00:46;;;;;;;23.73;4.13;;;;;;;;;;5000969;28;20100;-67
2021/10/22 09:03:13;;;;;;;31.88;4.60;;;;;;;;;;4997192;28;20414;-67
2021/10/22 09:05:55;;;;;;;25.30;3.78;;;;;;;;;;4995813;28;20034;-67
2021/10/22 09:08:33;;;;;;;31.42;5.50;;;;;;;;;;4990916;28;20592;-68
2021/10/22 09:11:00;;;;;;;26.80;4.88;;;;;;;;;;5002645;28;20121;-67
2021/10/22 09:13:28;;;;;;;19.92;4.18;;;;;;;;;;4996857;28;20114;-68
2021/10/22 09:15:57;;;;;;;22.17;3.90;;;;;;;;;;5006941;28;20042;-67
2021/10/22 09:18:25;;;;;;;27.75;4.00;;;;;;;;;;5006560;28;20042;-67
2021/10/22 09:20:53;;;;;;;27.35;3.67;;;;;;;;;;5011385;28;20042;-67
2021/10/22 09:23:28;;;;;;;22.67;4.00;;;;;;;;;;5011122;28;20057;-67
2021/10/22 09:25:54;;;;;;;33.70;4.68;;;;;;;;;;4995838;28;20061;-67
2021/10/22 09:28:25;;;;;;;20.08;3.65;;;;;;;;;;4994930;28;20046;-67
2021/10/22 09:30:52;;;;;;;15.68;2.10;;;;;;;;;;4999569;28;20149;-67
2021/10/22 09:33:21;;;;;;;17.35;2.30;;;;;;;;;;4992663;28;20049;-67
2021/10/22 09:35:50;;;;;;;16.00;2.97;;;;;;;;;;5003350;28;20046;-68
2021/10/22 09:38:17;;;;;;;22.70;6.05;;;;;;;;;;4984237;28;20495;-67
2021/10/22 09:40:43;;;;;;;12.23;2.17;;;;;;;;;;5002157;28;20490;-67
2021/10/22 09:43:10;;;;;;;12.77;2.38;;;;;;;;;;5001615;28;20053;-67
2021/10/22 09:45:36;;;;;;;17.95;2.40;;;;;;;;;;5004159;28;20038;-67
2021/10/22 09:48:21;;;;;;;15.73;2.90;;;;;;;;;;4993522;28;20053;-67
2021/10/22 09:50:47;;;;;;;;;;;;;;;;;;5011291;28;20041;-71
2021/10/22 09:53:23;;;;;;;38.10;3.83;;;;;;;;;;4992252;28;19929;-71
2021/10/22 09:56:02;;;;;;;16.80;2.50;;;;;;;;;;4993995;28;20128;-71
2021/10/22 09:58:28;;;;;;;21.23;2.20;;;;;;;;;;4994246;28;20069;-81
2021/10/22 10:01:09;;;;;;;17.05;3.10;;;;;;;;;;4986345;28;20492;-71
2021/10/22 10:03:37;;;;;;;23.65;3.20;;;;;;;;;;4982639;28;20047;-71
2021/10/22 10:06:07;;;;;;;17.20;2.00;;;;;;;;;;4996785;28;21320;-71
2021/10/22 10:08:35;;;;;;;13.90;1.85;;;;;;;;;;5014552;28;20056;-71
2021/10/22 10:11:03;;;;;;;11.88;1.70;;;;;;;;;;4993875;28;20498;-70
2021/10/22 10:13:31;;;;;;;10.77;1.98;;;;;;;;;;5003864;28;20038;-71
2021/10/22 10:15:58;;;;;;;15.10;1.85;;;;;;;;;;5001910;28;20042;-71
2021/10/22 10:18:25;;;;;;;14.32;2.70;;;;;;;;;;4988358;28;20260;-71
2021/10/22 10:20:54;;;;;;;21.27;2.42;;;;;;;;;;4991641;28;20064;-71
2021/10/22 10:23:21;;;;;;;16.38;2.42;;;;;;;;;;4996207;28;20045;-71
2021/10/22 10:25:47;;;;;;;20.35;3.15;;;;;;;;;;4994854;28;20038;-71
2021/10/22 10:28:14;;;;;;;19.27;3.47;;;;;;;;;;4994229;28;20048;-71
2021/10/22 10:33:45;;;;;;;25.33;3.97;;;;;;;;;;5006982;28;20045;-71
2021/10/22 10:36:31;;;;;;;18.67;2.70;;;;;;;;;;4996604;28;20038;-71
2021/10/22 10:38:57;;;;;;;25.30;3.13;;;;;;;;;;4974630;28;20181;-71
2021/10/22 10:41:23;;;;;;;22.05;4.15;;;;;;;;;;4998443;28;20111;-71
2021/10/22 10:43:50;;;;;;;19.85;3.47;;;;;;;;;;4994987;28;20042;-71
2021/10/22 10:46:32;;;;;;;18.52;3.15;;;;;;;;;;4995687;28;20132;-71
2021/10/22 10:48:59;;;;;;;16.48;2.50;;;;;;;;;;4992105;28;20045;-71
2021/10/22 10:51:36;;;;;;;12.35;2.00;;;;;;;;;;5008913;28;21577;-71
2021/10/22 10:54:03;;;;;;;11.27;1.67;;;;;;;;;;4992213;28;20447;-71
2021/10/22 10:56:34;;;;;;;13.05;2.08;;;;;;;;;;5004642;28;20042;-71
2021/10/22 10:59:00;;;;;;;14.40;2.00;;;;;;;;;;4994487;28;20241;-71
2021/10/22 11:01:30;;;;;;;9.93;1.77;;;;;;;;;;4991927;28;20046;-71
2021/10/22 11:03:57;;;;;;;15.90;3.20;;;;;;;;;;4986735;28;20049;-71
2021/10/22 11:06:35;;;;;;;15.23;2.90;;;;;;;;;;4993003;28;20089;-71
2021/10/22 11:09:01;;;;;;;14.57;2.50;;;;;;;;;;4989637;28;20127;-71
2021/10/22 11:11:29;;;;;;;13.45;2.50;;;;;;;;;;4994698;28;20069;-71
2021/10/22 11:14:02;;;;;;;18.30;3.53;;;;;;;;;;5003465;28;20049;-72
2021/10/22 11:16:34;;;;;;;14.50;2.28;;;;;;;;;;4979567;28;20528;-71
2021/10/22 11:19:02;;;;;;;6.97;1.30;;;;;;;;;;4998695;28;20480;-71
2021/10/22 11:21:29;;;;;;;8.60;1.77;;;;;;;;;;5000946;28;20078;-71
2021/10/22 11:23:56;;;;;;;10.07;1.40;;;;;;;;;;4983086;28;20046;-71
2021/10/22 11:26:22;;;;;;;9.45;1.55;;;;;;;;;;5003117;28;20038;-71
2021/10/22 11:28:53;;;;;;;14.43;2.05;;;;;;;;;;4990001;28;20113;-71
2021/10/22 11:31:39;;;;;;;14.40;2.72;;;;;;;;;;4992441;28;20045;-71
2021/10/22 11:34:05;;;;;;;13.70;2.40;;;;;;;;;;5001152;28;20050;-71
2021/10/22 11:36:32;;;;;;;12.25;2.20;;;;;;;;;;4992121;28;20168;-71
2021/10/22 11:38:59;;;;;;;15.85;2.92;;;;;;;;;;4992792;28;20072;-71
2021/10/22 11:41:25;;;;;;;16.10;3.00;;;;;;;;;;5003391;28;20447;-72
2021/10/22 11:44:05;;;;;;;11.15;2.13;;;;;;;;;;4990594;28;20096;-71
2021/10/22 11:46:40;;;;;;;10.57;1.60;;;;;;;;;;4993235;28;20046;-71
2021/10/22 11:49:07;;;;;;;7.25;1.98;;;;;;;;;;4986727;28;20096;-71
2021/10/22 11:51:33;;;;;;;7.22;1.50;;;;;;;;;;4988002;28;20494;-71
2021/10/22 11:53:59;;;;;;;14.18;2.10;;;;;;;;;;5005832;28;20453;-71
2021/10/22 11:56:36;;;;;;;15.27;1.67;;;;;;;;;;5072268;27;20403;-70
2021/10/22 11:59:02;;;;;;;15.13;2.45;;;;;;;;;;5055474;28;20103;-70
2021/10/22 12:01:28;;;;;;;14.98;2.60;;;;;;;;;;5054939;28;20063;-70
2021/10/22 12:03:55;;;;;;;13.98;2.30;;;;;;;;;;5051933;28;20430;-70
2021/10/22 12:06:23;;;;;;;15.43;3.05;;;;;;;;;;5056539;28;20108;-70
2021/10/22 12:08:50;;;;;;;8.13;2.00;;;;;;;;;;5056997;28;20554;-70
2021/10/22 12:11:18;;;;;;;12.30;2.50;;;;;;;;;;5086114;28;20374;-70
2021/10/22 12:13:45;;;;;;;13.13;2.35;;;;;;;;;;5050531;28;20049;-70
2021/10/22 12:16:20;;;;;;;12.98;2.80;;;;;;;;;;5056598;28;20053;-70
2021/10/22 12:18:50;;;;;;;14.77;2.78;;;;;;;;;;5052468;28;20049;-70
2021/10/22 12:21:17;;;;;;;15.38;2.22;;;;;;;;;;5052593;28;20052;-70
2021/10/22 12:23:43;;;;;;;13.40;2.35;;;;;;;;;;5054599;28;20044;-70
2021/10/22 12:26:20;;;;;;;13.55;2.28;;;;;;;;;;5056502;28;20052;-73
2021/10/22 12:28:57;;;;;;;16.30;2.83;;;;;;;;;;5080722;28;20049;-69
2021/10/22 12:31:28;;;;;;;14.90;2.22;;;;;;;;;;5068439;28;20057;-69
2021/10/22 12:34:10;;;;;;;13.27;2.65;;;;;;;;;;5081499;28;20032;-70
2021/10/22 12:36:37;;;;;;;17.17;2.92;;;;;;;;;;5078473;28;20088;-70
2021/10/22 12:39:22;;;;;;;10.40;2.20;;;;;;;;;;5042905;28;20040;-70
2021/10/22 12:41:48;;;;;;;14.77;2.65;;;;;;;;;;5040275;28;20143;-70
2021/10/22 12:44:15;;;;;;;15.73;3.13;;;;;;;;;;5071684;28;20084;-71
2021/10/22 12:46:53;;;;;;;19.00;2.78;;;;;;;;;;5079907;28;20049;-71
2021/10/22 12:49:24;;;;;;;21.23;4.25;;;;;;;;;;5043936;28;20386;-72
2021/10/22 12:51:54;;;;;;;16.48;4.05;;;;;;;;;;5056024;28;20051;-72
2021/10/22 12:54:20;;;;;;;19.60;4.00;;;;;;;;;;5084018;28;20044;-70
2021/10/22 12:56:53;;;;;;;10.77;2.38;;;;;;;;;;5060985;28;20053;-70
2021/10/22 12:59:22;;;;;;;18.38;2.47;;;;;;;;;;5053859;28;20545;-70
2021/10/22 13:01:49;;;;;;;14.45;2.70;;;;;;;;;;5055247;28;20460;-70
2021/10/22 13:04:19;;;;;;;11.07;1.83;;;;;;;;;;5088596;28;20113;-70
2021/10/22 13:06:54;;;;;;;11.80;2.53;;;;;;;;;;5038225;28;20081;-70
2021/10/22 13:22:16;;;;;;;39.17;6.53;;;;;;;;;;5033102;28;20165;-71
2021/10/22 13:24:43;;;;;;;12.77;2.20;;;;;;;;;;5063145;28;20042;-71
2021/10/22 13:27:09;;;;;;;13.77;2.25;;;;;;;;;;5016646;28;20060;-70
2021/10/22 13:29:35;;;;;;;13.45;2.53;;;;;;;;;;5034889;28;20042;-70
2021/10/22 13:32:02;;;;;;;1999.90;356.05;;;;;;;;;;5033216;28;20153;-71
2021/10/22 13:34:29;;;;;;;19.20;3.58;;;;;;;;;;5038065;28;20045;-70
2021/10/22 13:36:55;;;;;;;16.63;2.80;;;;;;;;;;5039530;28;20063;-70
2021/10/22 13:39:21;;;;;;;15.13;2.28;;;;;;;;;;5033084;28;20052;-71
2021/10/22 13:41:47;;;;;;;15.18;1.92;;;;;;;;;;5033927;28;20045;-70
2021/10/22 13:44:13;;;;;;;23.23;3.45;;;;;;;;;;5034728;28;20499;-70
2021/10/22 13:46:40;;;;;;;15.65;2.72;;;;;;;;;;5035163;28;20456;-70
2021/10/22 13:49:07;;;;;;;13.23;2.65;;;;;;;;;;5041266;28;20077;-70
2021/10/22 13:51:34;;;;;;;13.38;2.92;;;;;;;;;;5030611;28;20045;-70
2021/10/22 13:54:00;;;;;;;18.40;3.65;;;;;;;;;;5031685;28;20045;-71
2021/10/22 13:56:26;;;;;;;16.33;2.67;;;;;;;;;;5033634;28;20528;-71
2021/10/22 13:58:52;;;;;;;13.15;2.28;;;;;;;;;;5030287;28;20107;-70
2021/10/22 14:01:19;;;;;;;18.50;3.03;;;;;;;;;;5033564;28;20153;-70
2021/10/22 14:03:45;;;;;;;16.63;2.53;;;;;;;;;;5033529;28;20053;-70
2021/10/22 14:06:12;;;;;;;15.73;2.72;;;;;;;;;;5030885;28;20049;-70
2021/10/22 14:08:38;;;;;;;16.65;2.80;;;;;;;;;;5064876;28;20096;-69
2021/10/22 14:11:07;;;;;;;19.77;3.30;;;;;;;;;;5030865;28;20064;-70
2021/10/22 14:13:47;;;;;;;20.42;3.78;;;;;;;;;;5062292;28;20540;-69
2021/10/22 14:29:20;;;;;;;7.60;1.77;;;;;;;;;;5034263;28;20094;-70
2021/10/22 14:31:47;;;;;;;8.40;1.45;;;;;;;;;;5030369;28;20133;-70
2021/10/22 14:34:13;;;;;;;6.45;1.20;;;;;;;;;;5030012;28;20046;-70
2021/10/22 14:36:40;;;;;;;9.80;1.50;;;;;;;;;;5031993;28;20106;-70
2021/10/22 14:39:07;;;;;;;9.73;2.33;;;;;;;;;;5031988;28;20045;-70
2021/10/22 14:41:35;;;;;;;10.18;2.55;;;;;;;;;;5062668;28;20049;-70
2021/10/22 14:44:04;;;;;;;15.50;2.35;;;;;;;;;;5061894;28;20041;-69
2021/10/22 14:46:35;;;;;;;20.67;2.40;;;;;;;;;;5030853;28;20045;-70
2021/10/22 14:49:05;;;;;;;18.98;2.95;;;;;;;;;;5050056;28;20076;-71
2021/10/22 14:51:43;;;;;;;10.25;1.98;;;;;;;;;;5034862;28;20053;-71
2021/10/22 14:54:14;;;;;;;12.05;2.30;;;;;;;;;;5030308;28;20060;-72
2021/10/22 14:56:41;;;;;;;12.65;2.13;;;;;;;;;;5030721;28;20049;-71
2021/10/22 14:59:09;;;;;;;13.77;2.17;;;;;;;;;;5046740;28;20516;-71
2021/10/22 15:01:37;;;;;;;10.18;1.77;;;;;;;;;;5032151;28;20666;-71
2021/10/22 15:04:04;;;;;;;12.77;1.92;;;;;;;;;;5032738;28;20063;-71
2021/10/22 15:06:32;;;;;;;8.45;1.63;;;;;;;;;;5030165;28;20045;-77
2021/10/22 15:08:58;;;;;;;10.20;2.13;;;;;;;;;;5032065;28;20136;-71